Terminal Aerodrome Forecast
Issued by NWS Goodland, KS

Home | Current Version | Previous Version | Text Only | Print | Product List | Glossary On
Versions: 1 2 3 4 5 6 7 8 9 10 11 12 13
245
FTUS43 KGLD 150520
TAFGLD
TAF
KGLD 150520Z 1506/1606 32005KT P6SM VCSH SCT020
      TEMPO 1506/1510 1 1/2SM -SN BKN007 OVC020
     FM151000 02012KT P6SM -SN OVC020
     FM151600 01014KT P6SM BKN100
     FM160200 36010KT P6SM SKC=

USA.gov is the U.S. government's official web portal to all federal, state and local government web resources and services.